sensor_id;sensor_type;location;lat;lon;timestamp;temperature;humidity
8939;DHT22;4504;48.810;9.172;2023-06-22T00:01:19;22.40;99.90
8939;DHT22;4504;48.810;9.172;2023-06-22T00:03:46;22.30;99.90
8939;DHT22;4504;48.810;9.172;2023-06-22T00:06:13;22.30;99.90
8939;DHT22;4504;48.810;9.172;2023-06-22T00:08:40;22.20;99.90
8939;DHT22;4504;48.810;9.172;2023-06-22T00:11:07;22.20;99.90
8939;DHT22;4504;48.810;9.172;2023-06-22T00:13:34;22.10;99.90
8939;DHT22;4504;48.810;9.172;2023-06-22T00:16:02;22.20;99.90
8939;DHT22;4504;48.810;9.172;2023-06-22T00:18:30;22.20;99.90
8939;DHT22;4504;48.810;9.172;2023-06-22T00:20:57;22.20;99.90
8939;DHT22;4504;48.810;9.172;2023-06-22T00:23:24;22.20;99.90
8939;DHT22;4504;48.810;9.172;2023-06-22T00:25:51;22.20;99.90
8939;DHT22;4504;48.810;9.172;2023-06-22T00:28:18;22.20;99.90
8939;DHT22;4504;48.810;9.172;2023-06-22T00:30:45;22.20;99.90
8939;DHT22;4504;48.810;9.172;2023-06-22T00:33:13;22.20;99.90
8939;DHT22;4504;48.810;9.172;2023-06-22T00:35:43;22.10;99.90
8939;DHT22;4504;48.810;9.172;2023-06-22T00:38:10;22.10;99.90
8939;DHT22;4504;48.810;9.172;2023-06-22T00:40:37;22.10;99.90
8939;DHT22;4504;48.810;9.172;2023-06-22T00:43:06;22.10;99.90
8939;DHT22;4504;48.810;9.172;2023-06-22T00:45:33;22.00;99.90
8939;DHT22;4504;48.810;9.172;2023-06-22T00:48:00;22.10;99.90
8939;DHT22;4504;48.810;9.172;2023-06-22T00:50:30;22.00;99.90
8939;DHT22;4504;48.810;9.172;2023-06-22T00:53:03;22.00;99.90
8939;DHT22;4504;48.810;9.172;2023-06-22T00:55:33;22.00;99.90
8939;DHT22;4504;48.810;9.172;2023-06-22T00:58:03;22.00;99.90
8939;DHT22;4504;48.810;9.172;2023-06-22T01:00:33;21.90;99.90
8939;DHT22;4504;48.810;9.172;2023-06-22T01:03:02;21.80;99.90
8939;DHT22;4504;48.810;9.172;2023-06-22T01:05:29;21.80;99.90
8939;DHT22;4504;48.810;9.172;2023-06-22T01:08:12;21.80;99.90
8939;DHT22;4504;48.810;9.172;2023-06-22T01:10:46;21.70;99.90
8939;DHT22;4504;48.810;9.172;2023-06-22T01:13:23;21.50;99.90
8939;DHT22;4504;48.810;9.172;2023-06-22T01:15:57;21.30;99.90
8939;DHT22;4504;48.810;9.172;2023-06-22T01:18:28;21.30;99.90
8939;DHT22;4504;48.810;9.172;2023-06-22T01:20:57;21.30;99.90
8939;DHT22;4504;48.810;9.172;2023-06-22T01:23:36;21.20;99.90
8939;DHT22;4504;48.810;9.172;2023-06-22T01:26:13;21.30;99.90
8939;DHT22;4504;48.810;9.172;2023-06-22T01:28:48;21.40;99.90
8939;DHT22;4504;48.810;9.172;2023-06-22T01:31:19;21.40;99.90
8939;DHT22;4504;48.810;9.172;2023-06-22T01:33:50;21.50;99.90
8939;DHT22;4504;48.810;9.172;2023-06-22T01:36:18;21.50;99.90
8939;DHT22;4504;48.810;9.172;2023-06-22T01:38:46;21.40;99.90
8939;DHT22;4504;48.810;9.172;2023-06-22T01:41:14;21.30;99.90
8939;DHT22;4504;48.810;9.172;2023-06-22T01:43:42;21.30;99.90
8939;DHT22;4504;48.810;9.172;2023-06-22T01:46:12;21.30;99.90
8939;DHT22;4504;48.810;9.172;2023-06-22T01:48:39;21.30;99.90
8939;DHT22;4504;48.810;9.172;2023-06-22T01:51:06;21.30;99.90
8939;DHT22;4504;48.810;9.172;2023-06-22T01:53:33;21.30;99.90
8939;DHT22;4504;48.810;9.172;2023-06-22T01:56:00;21.30;99.90
8939;DHT22;4504;48.810;9.172;2023-06-22T01:58:30;21.40;99.90
8939;DHT22;4504;48.810;9.172;2023-06-22T02:01:00;21.40;99.90
8939;DHT22;4504;48.810;9.172;2023-06-22T02:03:34;21.40;99.90
8939;DHT22;4504;48.810;9.172;2023-06-22T02:06:05;21.40;99.90
8939;DHT22;4504;48.810;9.172;2023-06-22T02:08:38;21.40;99.90
8939;DHT22;4504;48.810;9.172;2023-06-22T02:11:08;21.40;99.90
8939;DHT22;4504;48.810;9.172;2023-06-22T02:13:36;21.40;99.90
8939;DHT22;4504;48.810;9.172;2023-06-22T02:16:09;21.30;99.90
8939;DHT22;4504;48.810;9.172;2023-06-22T02:18:37;21.40;99.90
8939;DHT22;4504;48.810;9.172;2023-06-22T02:21:06;21.30;99.90
8939;DHT22;4504;48.810;9.172;2023-06-22T02:23:33;21.40;99.90
8939;DHT22;4504;48.810;9.172;2023-06-22T02:26:01;21.40;99.90
8939;DHT22;4504;48.810;9.172;2023-06-22T02:28:29;21.40;99.90
8939;DHT22;4504;48.810;9.172;2023-06-22T02:30:56;21.40;99.90
8939;DHT22;4504;48.810;9.172;2023-06-22T02:33:23;21.30;99.90
8939;DHT22;4504;48.810;9.172;2023-06-22T02:35:51;21.30;99.90
8939;DHT22;4504;48.810;9.172;2023-06-22T02:38:21;21.30;99.90
8939;DHT22;4504;48.810;9.172;2023-06-22T02:40:51;21.20;99.90
8939;DHT22;4504;48.810;9.172;2023-06-22T02:43:18;21.20;99.90
8939;DHT22;4504;48.810;9.172;2023-06-22T02:45:45;21.20;99.90
8939;DHT22;4504;48.810;9.172;2023-06-22T02:48:12;21.20;99.90
8939;DHT22;4504;48.810;9.172;2023-06-22T02:50:39;21.30;99.90
8939;DHT22;4504;48.810;9.172;2023-06-22T02:53:08;21.20;99.90
8939;DHT22;4504;48.810;9.172;2023-06-22T02:55:38;21.20;99.90
8939;DHT22;4504;48.810;9.172;2023-06-22T02:58:05;21.30;99.90
8939;DHT22;4504;48.810;9.172;2023-06-22T03:00:35;21.30;99.90
8939;DHT22;4504;48.810;9.172;2023-06-22T03:03:02;21.30;99.90
8939;DHT22;4504;48.810;9.172;2023-06-22T03:05:29;21.30;99.90
8939;DHT22;4504;48.810;9.172;2023-06-22T03:07:59;21.30;99.90
8939;DHT22;4504;48.810;9.172;2023-06-22T03:10:30;21.30;99.90
8939;DHT22;4504;48.810;9.172;2023-06-22T03:12:57;21.30;99.90
8939;DHT22;4504;48.810;9.172;2023-06-22T03:15:24;21.30;99.90
8939;DHT22;4504;48.810;9.172;2023-06-22T03:17:51;21.20;99.90
8939;DHT22;4504;48.810;9.172;2023-06-22T03:20:19;21.20;99.90
8939;DHT22;4504;48.810;9.172;2023-06-22T03:22:46;21.30;99.90
8939;DHT22;4504;48.810;9.172;2023-06-22T03:25:14;21.20;99.90
8939;DHT22;4504;48.810;9.172;2023-06-22T03:27:45;21.10;99.90
8939;DHT22;4504;48.810;9.172;2023-06-22T03:30:13;21.10;99.90
8939;DHT22;4504;48.810;9.172;2023-06-22T03:32:41;21.00;99.90
8939;DHT22;4504;48.810;9.172;2023-06-22T03:35:09;21.00;99.90
8939;DHT22;4504;48.810;9.172;2023-06-22T03:37:38;21.00;99.90
8939;DHT22;4504;48.810;9.172;2023-06-22T03:40:06;20.90;99.90
8939;DHT22;4504;48.810;9.172;2023-06-22T03:42:34;21.00;99.90
8939;DHT22;4504;48.810;9.172;2023-06-22T03:45:04;20.90;99.90
8939;DHT22;4504;48.810;9.172;2023-06-22T03:47:33;20.90;99.90
8939;DHT22;4504;48.810;9.172;2023-06-22T03:50:00;20.90;99.90
8939;DHT22;4504;48.810;9.172;2023-06-22T03:52:29;20.90;99.90
8939;DHT22;4504;48.810;9.172;2023-06-22T03:54:56;21.00;99.90
8939;DHT22;4504;48.810;9.172;2023-06-22T03:57:23;21.00;99.90
8939;DHT22;4504;48.810;9.172;2023-06-22T03:59:50;20.90;99.90
8939;DHT22;4504;48.810;9.172;2023-06-22T04:02:19;21.00;99.90
8939;DHT22;4504;48.810;9.172;2023-06-22T04:04:45;21.00;99.90
8939;DHT22;4504;48.810;9.172;2023-06-22T04:07:12;21.00;99.90
8939;DHT22;4504;48.810;9.172;2023-06-22T04:09:39;21.00;99.90
8939;DHT22;4504;48.810;9.172;2023-06-22T04:12:07;21.10;99.90
8939;DHT22;4504;48.810;9.172;2023-06-22T04:14:34;21.10;99.90
8939;DHT22;4504;48.810;9.172;2023-06-22T04:17:01;21.20;99.90
8939;DHT22;4504;48.810;9.172;2023-06-22T04:19:29;21.20;99.90
8939;DHT22;4504;48.810;9.172;2023-06-22T04:21:56;21.30;99.90
8939;DHT22;4504;48.810;9.172;2023-06-22T04:24:23;21.20;99.90
8939;DHT22;4504;48.810;9.172;2023-06-22T04:26:50;21.20;99.90
8939;DHT22;4504;48.810;9.172;2023-06-22T04:29:20;21.20;99.90
8939;DHT22;4504;48.810;9.172;2023-06-22T04:31:56;21.30;99.90
8939;DHT22;4504;48.810;9.172;2023-06-22T04:34:24;21.40;99.90
8939;DHT22;4504;48.810;9.172;2023-06-22T04:36:54;21.40;99.90
8939;DHT22;4504;48.810;9.172;2023-06-22T04:39:21;21.40;99.90
8939;DHT22;4504;48.810;9.172;2023-06-22T04:41:49;21.20;99.90
8939;DHT22;4504;48.810;9.172;2023-06-22T04:44:18;21.20;99.90
8939;DHT22;4504;48.810;9.172;2023-06-22T04:46:49;21.20;99.90
8939;DHT22;4504;48.810;9.172;2023-06-22T04:49:20;21.30;99.90
8939;DHT22;4504;48.810;9.172;2023-06-22T04:51:48;21.30;99.90
8939;DHT22;4504;48.810;9.172;2023-06-22T04:54:18;21.20;99.90
8939;DHT22;4504;48.810;9.172;2023-06-22T04:56:45;21.20;99.90
8939;DHT22;4504;48.810;9.172;2023-06-22T04:59:14;21.30;99.90
8939;DHT22;4504;48.810;9.172;2023-06-22T05:01:44;21.30;99.90
8939;DHT22;4504;48.810;9.172;2023-06-22T05:04:11;21.30;99.90
8939;DHT22;4504;48.810;9.172;2023-06-22T05:06:38;21.40;99.90
8939;DHT22;4504;48.810;9.172;2023-06-22T05:09:05;21.40;99.90
8939;DHT22;4504;48.810;9.172;2023-06-22T05:11:34;21.50;99.90
8939;DHT22;4504;48.810;9.172;2023-06-22T05:14:01;21.60;99.90
8939;DHT22;4504;48.810;9.172;2023-06-22T05:16:28;21.70;99.90
8939;DHT22;4504;48.810;9.172;2023-06-22T05:18:55;21.70;99.90
8939;DHT22;4504;48.810;9.172;2023-06-22T05:21:23;21.70;99.90
8939;DHT22;4504;48.810;9.172;2023-06-22T05:23:50;21.80;99.90
8939;DHT22;4504;48.810;9.172;2023-06-22T05:26:18;21.80;99.90
8939;DHT22;4504;48.810;9.172;2023-06-22T05:28:47;21.80;99.90
8939;DHT22;4504;48.810;9.172;2023-06-22T05:31:15;21.80;99.90
8939;DHT22;4504;48.810;9.172;2023-06-22T05:33:43;21.90;99.90
8939;DHT22;4504;48.810;9.172;2023-06-22T05:36:11;21.90;99.90
8939;DHT22;4504;48.810;9.172;2023-06-22T05:38:38;21.90;99.90
8939;DHT22;4504;48.810;9.172;2023-06-22T05:41:06;21.90;99.90
8939;DHT22;4504;48.810;9.172;2023-06-22T05:43:33;22.00;99.90
8939;DHT22;4504;48.810;9.172;2023-06-22T05:46:01;22.00;99.90
8939;DHT22;4504;48.810;9.172;2023-06-22T05:48:28;22.00;99.90
8939;DHT22;4504;48.810;9.172;2023-06-22T05:50:55;21.90;99.90
8939;DHT22;4504;48.810;9.172;2023-06-22T05:53:22;22.00;99.90
8939;DHT22;4504;48.810;9.172;2023-06-22T05:55:49;22.00;99.90
8939;DHT22;4504;48.810;9.172;2023-06-22T05:58:17;22.00;99.90
8939;DHT22;4504;48.810;9.172;2023-06-22T06:00:44;22.00;99.90
8939;DHT22;4504;48.810;9.172;2023-06-22T06:03:13;22.00;99.90
8939;DHT22;4504;48.810;9.172;2023-06-22T06:05:43;22.00;99.90
8939;DHT22;4504;48.810;9.172;2023-06-22T06:08:11;22.00;99.90
8939;DHT22;4504;48.810;9.172;2023-06-22T06:10:38;22.00;99.90
8939;DHT22;4504;48.810;9.172;2023-06-22T06:13:05;22.10;99.90
8939;DHT22;4504;48.810;9.172;2023-06-22T06:15:32;22.10;99.90
8939;DHT22;4504;48.810;9.172;2023-06-22T06:17:59;22.20;99.90
8939;DHT22;4504;48.810;9.172;2023-06-22T06:20:29;22.10;99.90
8939;DHT22;4504;48.810;9.172;2023-06-22T06:22:56;22.10;99.90
8939;DHT22;4504;48.810;9.172;2023-06-22T06:25:23;22.20;99.90
8939;DHT22;4504;48.810;9.172;2023-06-22T06:27:51;22.20;99.90
8939;DHT22;4504;48.810;9.172;2023-06-22T06:30:20;22.20;99.90
8939;DHT22;4504;48.810;9.172;2023-06-22T06:32:47;22.30;99.90
8939;DHT22;4504;48.810;9.172;2023-06-22T06:35:15;22.40;99.90
8939;DHT22;4504;48.810;9.172;2023-06-22T06:37:45;22.40;99.90
8939;DHT22;4504;48.810;9.172;2023-06-22T06:40:13;22.40;99.90
8939;DHT22;4504;48.810;9.172;2023-06-22T06:42:43;22.40;99.90
8939;DHT22;4504;48.810;9.172;2023-06-22T06:45:11;22.50;99.90
8939;DHT22;4504;48.810;9.172;2023-06-22T06:47:39;22.60;99.90
8939;DHT22;4504;48.810;9.172;2023-06-22T06:50:07;22.60;99.90
8939;DHT22;4504;48.810;9.172;2023-06-22T06:52:34;22.70;99.90
8939;DHT22;4504;48.810;9.172;2023-06-22T06:55:03;22.70;99.90
8939;DHT22;4504;48.810;9.172;2023-06-22T06:57:33;22.70;99.90
8939;DHT22;4504;48.810;9.172;2023-06-22T07:00:00;22.80;99.90
8939;DHT22;4504;48.810;9.172;2023-06-22T07:02:33;22.90;99.90
8939;DHT22;4504;48.810;9.172;2023-06-22T07:05:00;23.00;99.90
8939;DHT22;4504;48.810;9.172;2023-06-22T07:07:29;23.00;99.90
8939;DHT22;4504;48.810;9.172;2023-06-22T07:09:56;23.10;99.90
8939;DHT22;4504;48.810;9.172;2023-06-22T07:12:25;23.10;99.90
8939;DHT22;4504;48.810;9.172;2023-06-22T07:14:53;23.20;99.90
8939;DHT22;4504;48.810;9.172;2023-06-22T07:17:20;23.20;99.90
8939;DHT22;4504;48.810;9.172;2023-06-22T07:19:47;23.30;99.90
8939;DHT22;4504;48.810;9.172;2023-06-22T07:22:14;23.30;99.90
8939;DHT22;4504;48.810;9.172;2023-06-22T07:24:41;23.40;99.90
8939;DHT22;4504;48.810;9.172;2023-06-22T07:27:08;23.50;99.90
8939;DHT22;4504;48.810;9.172;2023-06-22T07:29:38;23.60;99.90
8939;DHT22;4504;48.810;9.172;2023-06-22T07:32:08;23.60;99.90
8939;DHT22;4504;48.810;9.172;2023-06-22T07:34:35;23.70;99.90
8939;DHT22;4504;48.810;9.172;2023-06-22T07:37:02;23.70;99.90
8939;DHT22;4504;48.810;9.172;2023-06-22T07:39:30;23.70;99.90
8939;DHT22;4504;48.810;9.172;2023-06-22T07:41:57;23.70;99.90
8939;DHT22;4504;48.810;9.172;2023-06-22T07:44:24;23.80;99.90
8939;DHT22;4504;48.810;9.172;2023-06-22T07:46:52;23.80;99.90
8939;DHT22;4504;48.810;9.172;2023-06-22T07:49:20;23.90;99.90
8939;DHT22;4504;48.810;9.172;2023-06-22T07:51:47;24.00;99.90
8939;DHT22;4504;48.810;9.172;2023-06-22T07:54:14;24.10;99.90
8939;DHT22;4504;48.810;9.172;2023-06-22T07:56:41;24.20;99.90
8939;DHT22;4504;48.810;9.172;2023-06-22T07:59:08;24.20;99.90
8939;DHT22;4504;48.810;9.172;2023-06-22T08:01:35;24.30;99.90
8939;DHT22;4504;48.810;9.172;2023-06-22T08:04:04;24.40;99.90
8939;DHT22;4504;48.810;9.172;2023-06-22T08:06:31;24.40;99.90
8939;DHT22;4504;48.810;9.172;2023-06-22T08:08:58;24.50;99.90
8939;DHT22;4504;48.810;9.172;2023-06-22T08:11:25;24.60;99.90
8939;DHT22;4504;48.810;9.172;2023-06-22T08:13:52;24.60;99.90
8939;DHT22;4504;48.810;9.172;2023-06-22T08:16:21;24.70;99.90
8939;DHT22;4504;48.810;9.172;2023-06-22T08:18:48;24.80;99.90
8939;DHT22;4504;48.810;9.172;2023-06-22T08:21:16;24.90;99.90
8939;DHT22;4504;48.810;9.172;2023-06-22T08:23:44;24.90;99.90
8939;DHT22;4504;48.810;9.172;2023-06-22T08:26:10;24.80;99.90
8939;DHT22;4504;48.810;9.172;2023-06-22T08:28:37;25.00;99.90
8939;DHT22;4504;48.810;9.172;2023-06-22T08:31:05;25.00;99.90
8939;DHT22;4504;48.810;9.172;2023-06-22T08:33:32;25.10;99.90
8939;DHT22;4504;48.810;9.172;2023-06-22T08:35:59;25.20;99.90
8939;DHT22;4504;48.810;9.172;2023-06-22T08:38:27;25.40;99.90
8939;DHT22;4504;48.810;9.172;2023-06-22T08:40:54;25.20;99.90
8939;DHT22;4504;48.810;9.172;2023-06-22T08:43:21;25.30;99.90
8939;DHT22;4504;48.810;9.172;2023-06-22T08:45:48;25.30;99.90
8939;DHT22;4504;48.810;9.172;2023-06-22T08:48:15;25.50;99.90
8939;DHT22;4504;48.810;9.172;2023-06-22T08:50:42;25.60;99.90
8939;DHT22;4504;48.810;9.172;2023-06-22T08:53:09;25.70;99.90
8939;DHT22;4504;48.810;9.172;2023-06-22T08:55:37;25.80;99.90
8939;DHT22;4504;48.810;9.172;2023-06-22T08:58:04;25.90;99.90
8939;DHT22;4504;48.810;9.172;2023-06-22T09:00:32;25.90;99.90
8939;DHT22;4504;48.810;9.172;2023-06-22T09:03:00;25.90;99.90
8939;DHT22;4504;48.810;9.172;2023-06-22T09:05:27;25.90;99.90
8939;DHT22;4504;48.810;9.172;2023-06-22T09:07:56;26.10;99.90
8939;DHT22;4504;48.810;9.172;2023-06-22T09:10:24;26.20;99.90
8939;DHT22;4504;48.810;9.172;2023-06-22T09:12:52;26.50;99.70
8939;DHT22;4504;48.810;9.172;2023-06-22T09:15:19;26.60;99.70
8939;DHT22;4504;48.810;9.172;2023-06-22T09:17:46;26.80;98.80
8939;DHT22;4504;48.810;9.172;2023-06-22T09:20:13;26.90;99.10
8939;DHT22;4504;48.810;9.172;2023-06-22T09:22:40;26.80;98.20
8939;DHT22;4504;48.810;9.172;2023-06-22T09:25:08;26.70;98.70
8939;DHT22;4504;48.810;9.172;2023-06-22T09:27:35;26.70;99.00
8939;DHT22;4504;48.810;9.172;2023-06-22T09:30:04;26.90;98.70
8939;DHT22;4504;48.810;9.172;2023-06-22T09:32:31;26.80;98.40
8939;DHT22;4504;48.810;9.172;2023-06-22T09:34:58;26.90;98.20
8939;DHT22;4504;48.810;9.172;2023-06-22T09:37:25;26.90;98.40
8939;DHT22;4504;48.810;9.172;2023-06-22T09:39:52;27.00;98.10
8939;DHT22;4504;48.810;9.172;2023-06-22T09:42:19;27.20;97.90
8939;DHT22;4504;48.810;9.172;2023-06-22T09:44:46;27.30;97.90
8939;DHT22;4504;48.810;9.172;2023-06-22T09:47:15;27.30;97.80
8939;DHT22;4504;48.810;9.172;2023-06-22T09:49:41;27.40;97.10
8939;DHT22;4504;48.810;9.172;2023-06-22T09:52:08;27.50;97.40
8939;DHT22;4504;48.810;9.172;2023-06-22T09:54:37;27.50;96.40
8939;DHT22;4504;48.810;9.172;2023-06-22T09:57:04;27.60;97.20
8939;DHT22;4504;48.810;9.172;2023-06-22T09:59:31;27.70;95.90
8939;DHT22;4504;48.810;9.172;2023-06-22T10:01:58;27.80;96.10
8939;DHT22;4504;48.810;9.172;2023-06-22T10:04:26;28.00;96.40
8939;DHT22;4504;48.810;9.172;2023-06-22T10:06:53;28.20;96.10
8939;DHT22;4504;48.810;9.172;2023-06-22T10:09:20;28.40;96.00
8939;DHT22;4504;48.810;9.172;2023-06-22T10:11:47;28.60;95.50
8939;DHT22;4504;48.810;9.172;2023-06-22T10:14:14;28.70;95.60
8939;DHT22;4504;48.810;9.172;2023-06-22T10:16:42;28.80;94.10
8939;DHT22;4504;48.810;9.172;2023-06-22T10:19:09;28.70;94.40
8939;DHT22;4504;48.810;9.172;2023-06-22T10:21:37;28.70;94.50
8939;DHT22;4504;48.810;9.172;2023-06-22T10:24:04;28.60;95.00
8939;DHT22;4504;48.810;9.172;2023-06-22T10:26:32;28.60;95.10
8939;DHT22;4504;48.810;9.172;2023-06-22T10:28:59;28.60;95.30
8939;DHT22;4504;48.810;9.172;2023-06-22T10:31:26;28.80;95.10
8939;DHT22;4504;48.810;9.172;2023-06-22T10:33:54;28.80;94.30
8939;DHT22;4504;48.810;9.172;2023-06-22T10:36:21;28.80;93.70
8939;DHT22;4504;48.810;9.172;2023-06-22T10:38:50;28.90;93.50
8939;DHT22;4504;48.810;9.172;2023-06-22T10:41:18;28.90;93.70
8939;DHT22;4504;48.810;9.172;2023-06-22T10:43:45;29.00;93.90
8939;DHT22;4504;48.810;9.172;2023-06-22T10:46:12;29.00;92.90
8939;DHT22;4504;48.810;9.172;2023-06-22T10:48:39;29.20;93.50
8939;DHT22;4504;48.810;9.172;2023-06-22T10:51:06;29.20;92.90
8939;DHT22;4504;48.810;9.172;2023-06-22T10:53:33;29.30;92.60
8939;DHT22;4504;48.810;9.172;2023-06-22T10:56:01;29.40;92.00
8939;DHT22;4504;48.810;9.172;2023-06-22T10:58:28;29.70;93.20
8939;DHT22;4504;48.810;9.172;2023-06-22T11:00:55;29.50;91.60
8939;DHT22;4504;48.810;9.172;2023-06-22T11:03:22;29.50;91.40
8939;DHT22;4504;48.810;9.172;2023-06-22T11:05:49;29.60;91.90
8939;DHT22;4504;48.810;9.172;2023-06-22T11:08:16;29.90;91.80
8939;DHT22;4504;48.810;9.172;2023-06-22T11:10:44;30.20;92.10
8939;DHT22;4504;48.810;9.172;2023-06-22T11:13:12;30.20;91.50
8939;DHT22;4504;48.810;9.172;2023-06-22T11:15:40;30.00;91.60
8939;DHT22;4504;48.810;9.172;2023-06-22T11:18:07;30.10;91.30
8939;DHT22;4504;48.810;9.172;2023-06-22T11:20:34;29.90;92.20
8939;DHT22;4504;48.810;9.172;2023-06-22T11:23:04;29.80;92.90
8939;DHT22;4504;48.810;9.172;2023-06-22T11:25:32;29.70;92.60
8939;DHT22;4504;48.810;9.172;2023-06-22T11:28:01;29.40;92.10
8939;DHT22;4504;48.810;9.172;2023-06-22T11:30:30;29.50;93.00
8939;DHT22;4504;48.810;9.172;2023-06-22T11:32:58;29.50;93.10
8939;DHT22;4504;48.810;9.172;2023-06-22T11:35:25;29.50;92.00
8939;DHT22;4504;48.810;9.172;2023-06-22T11:37:52;29.20;91.90
8939;DHT22;4504;48.810;9.172;2023-06-22T11:40:19;29.20;92.30
8939;DHT22;4504;48.810;9.172;2023-06-22T11:42:48;29.20;92.70
8939;DHT22;4504;48.810;9.172;2023-06-22T11:45:15;29.20;92.20
8939;DHT22;4504;48.810;9.172;2023-06-22T11:47:44;29.20;92.40
8939;DHT22;4504;48.810;9.172;2023-06-22T11:50:11;29.20;92.40
8939;DHT22;4504;48.810;9.172;2023-06-22T11:52:38;29.30;92.80
8939;DHT22;4504;48.810;9.172;2023-06-22T11:55:06;29.40;91.80
8939;DHT22;4504;48.810;9.172;2023-06-22T11:57:34;29.50;91.50
8939;DHT22;4504;48.810;9.172;2023-06-22T12:00:01;29.30;91.60
8939;DHT22;4504;48.810;9.172;2023-06-22T12:02:32;29.20;91.80
8939;DHT22;4504;48.810;9.172;2023-06-22T12:05:00;29.00;92.50
8939;DHT22;4504;48.810;9.172;2023-06-22T12:07:30;29.10;93.70
8939;DHT22;4504;48.810;9.172;2023-06-22T12:09:57;29.00;92.60
8939;DHT22;4504;48.810;9.172;2023-06-22T12:12:24;29.10;92.50
8939;DHT22;4504;48.810;9.172;2023-06-22T12:14:51;29.00;91.50
8939;DHT22;4504;48.810;9.172;2023-06-22T12:17:18;29.20;91.20
8939;DHT22;4504;48.810;9.172;2023-06-22T12:19:45;29.30;90.90
8939;DHT22;4504;48.810;9.172;2023-06-22T12:22:13;29.20;91.00
8939;DHT22;4504;48.810;9.172;2023-06-22T12:24:40;29.20;91.00
8939;DHT22;4504;48.810;9.172;2023-06-22T12:27:07;29.10;91.10
8939;DHT22;4504;48.810;9.172;2023-06-22T12:29:35;29.00;90.50
8939;DHT22;4504;48.810;9.172;2023-06-22T12:32:03;29.00;90.10
8939;DHT22;4504;48.810;9.172;2023-06-22T12:34:30;29.30;91.20
8939;DHT22;4504;48.810;9.172;2023-06-22T12:36:57;29.60;88.60
8939;DHT22;4504;48.810;9.172;2023-06-22T12:39:25;29.70;87.30
8939;DHT22;4504;48.810;9.172;2023-06-22T12:41:52;29.60;90.10
8939;DHT22;4504;48.810;9.172;2023-06-22T12:44:19;29.40;91.40
8939;DHT22;4504;48.810;9.172;2023-06-22T12:46:46;29.30;91.20
8939;DHT22;4504;48.810;9.172;2023-06-22T12:49:13;29.30;91.40
8939;DHT22;4504;48.810;9.172;2023-06-22T12:51:40;29.30;90.60
8939;DHT22;4504;48.810;9.172;2023-06-22T12:54:08;29.50;91.00
8939;DHT22;4504;48.810;9.172;2023-06-22T12:56:37;29.60;91.00
8939;DHT22;4504;48.810;9.172;2023-06-22T12:59:04;29.60;91.10
8939;DHT22;4504;48.810;9.172;2023-06-22T13:01:32;29.50;91.80
